Hovedside
METAR-TAF:

METAR-TAF

Lufthavner :

Kristiansund lufthavn. Kvernberget

Kristiansund, Norge

breddegrad: 63-07N, lengdegrad: 007-50E, høyde over havet: 6 m

Gjeldene værobservasjon

Denne rapporten ble laget for 11 minutter siden, klokken 02:50 UTC
Vind 8 kt fra Øst-sørøst, skiftende mellom Øst-nordøst og Sør-sørøst
Temperatur 5°C
Luftfuktighet 48%
Trykk 981 hPa
Sikt 10 km eller mer

METAR: ENKB 140250Z AUTO 12008KT 070V160 9999 SCT120/// 05/M05 Q0981 RMK WIND 745FT 14019KT

Tid: 04:01 (03:01 UTC)

Varsel

Denne rapporten ble laget for 1 time og 1 minutter siden, klokken 02:00 UTC
Varsel gyldig fra 14. klokken 03 UTC til 14. klokken 12 UTC
Vind 8 kt fra Øst-sørøst
Sikt 10 km eller mer
ingen skyer under 1500 m og ingen bygeskyer

TAF: ENKB 140200Z 1403/1412 12008KT CAVOK

Værobservasjoner og værvarsel for over 4000 flyplasser (METAR- og TAF-rapporter).

Tilgjengelige stasjoner er representert av de røde og gule prikkene på kartet.

Hold musepekeren over prikken for å se navnet på stasjonen.

Klikk så for å se værobservasjoner og -varsler.

For å forandre kartet kan du klikke på den grønne knappen med svart kryss for å zoome inn, på den grønne knappen med strek for å zoome ut, eller på de grønne pilene for å se tilstøtende kart.


METAR-TAF: